JBU222 MYNN-KJFK
Flight info
| Callsign | JBU222 |
|---|---|
| Flight time | 2h 21m |
| Altitude | 36000 |
| Route | INGRA2 INGRA G437 ELBOW DCT JAZZI DCT SAGGY DCT CHIEZ Q161 KALDA Q108 SIE CAMRN5 |
| Aircraft | A320/M-SDE3FGHIRWY/LB1 |
Departure
| Time | 2026-05-04 11:34 |
|---|---|
| Airport | Lynden Pindling International Airport (MYNN) |
Arrival
| Time | 2026-05-04 13:55 |
|---|---|
| Airport | John F. Kennedy International Airport (KJFK) |
| Time | Latitude | Longitude | Altitude | Speed | Heading |
|---|---|---|---|---|---|
| 2026-05-04 11:24 | 25.04899 | -77.46776 | 12 ft | 0 kts | 147° |
| 2026-05-04 11:27 | 25.04949 | -77.46805 | 13 ft | 4 kts | 173° |
| 2026-05-04 11:28 | 25.04969 | -77.46802 | 14 ft | 3 kts | 242° |
| 2026-05-04 11:28 | 25.04970 | -77.46800 | 13 ft | 0 kts | 244° |
| 2026-05-04 11:31 | 25.04788 | -77.47020 | 13 ft | 11 kts | 257° |
| 2026-05-04 11:33 | 25.04691 | -77.47017 | 13 ft | 13 kts | 135° |
| 2026-05-04 11:33 | 25.04447 | -77.46751 | 13 ft | 83 kts | 135° |
| 2026-05-04 11:33 | 25.03906 | -77.46146 | 13 ft | 136 kts | 135° |
| 2026-05-04 11:34 | 25.03135 | -77.45307 | 99 ft | 167 kts | 140° |
| 2026-05-04 11:34 | 25.02309 | -77.44395 | 618 ft | 172 kts | 137° |
| 2026-05-04 11:34 | 25.01467 | -77.43437 | 1196 ft | 175 kts | 133° |
| 2026-05-04 11:34 | 25.00958 | -77.42158 | 1552 ft | 198 kts | 94° |
| 2026-05-04 11:35 | 25.01360 | -77.40631 | 1829 ft | 223 kts | 56° |
| 2026-05-04 11:35 | 25.02280 | -77.39166 | 2175 ft | 243 kts | 55° |
| 2026-05-04 11:35 | 25.03309 | -77.37567 | 2584 ft | 266 kts | 54° |
| 2026-05-04 11:35 | 25.04405 | -77.35870 | 3307 ft | 274 kts | 54° |
| 2026-05-04 11:36 | 25.05522 | -77.34132 | 4122 ft | 280 kts | 54° |
| 2026-05-04 11:36 | 25.06650 | -77.32364 | 5005 ft | 284 kts | 54° |
| 2026-05-04 11:36 | 25.07780 | -77.30589 | 5873 ft | 288 kts | 54° |
| 2026-05-04 11:36 | 25.08940 | -77.28766 | 6722 ft | 292 kts | 54° |
| 2026-05-04 11:37 | 25.10137 | -77.26930 | 7523 ft | 296 kts | 48° |
| 2026-05-04 11:37 | 25.11664 | -77.25399 | 8318 ft | 299 kts | 31° |
| 2026-05-04 11:37 | 25.13528 | -77.24408 | 9131 ft | 298 kts | 13° |
| 2026-05-04 11:37 | 25.15565 | -77.24030 | 9943 ft | 297 kts | 359° |
| 2026-05-04 11:38 | 25.17651 | -77.23919 | 10438 ft | 312 kts | 359° |
| 2026-05-04 11:38 | 25.19909 | -77.23801 | 10674 ft | 336 kts | 359° |
| 2026-05-04 11:38 | 25.22314 | -77.23671 | 11090 ft | 352 kts | 359° |
| 2026-05-04 11:38 | 25.24785 | -77.23526 | 11766 ft | 358 kts | 359° |
| 2026-05-04 11:39 | 25.27297 | -77.23377 | 12497 ft | 363 kts | 359° |
| 2026-05-04 11:39 | 25.29812 | -77.23227 | 13218 ft | 367 kts | 359° |
| 2026-05-04 11:40 | 25.45677 | -77.22153 | 17129 ft | 397 kts | 6° |
| 2026-05-04 11:41 | 25.48370 | -77.21296 | 17725 ft | 407 kts | 18° |
| 2026-05-04 11:41 | 25.50968 | -77.19990 | 18308 ft | 413 kts | 21° |
| 2026-05-04 11:41 | 25.53586 | -77.18640 | 18813 ft | 416 kts | 20° |
| 2026-05-04 11:41 | 25.56200 | -77.17294 | 19314 ft | 420 kts | 20° |
| 2026-05-04 11:42 | 25.58864 | -77.15925 | 19819 ft | 423 kts | 20° |
| 2026-05-04 11:42 | 25.61552 | -77.14546 | 20312 ft | 426 kts | 20° |
| 2026-05-04 11:42 | 25.64260 | -77.13158 | 20803 ft | 430 kts | 20° |
| 2026-05-04 11:42 | 25.66984 | -77.11765 | 21291 ft | 433 kts | 20° |
| 2026-05-04 11:43 | 25.69732 | -77.10359 | 21769 ft | 436 kts | 20° |
| 2026-05-04 11:43 | 25.72503 | -77.08935 | 22209 ft | 440 kts | 20° |
| 2026-05-04 11:43 | 25.75297 | -77.07497 | 22666 ft | 443 kts | 19° |
| 2026-05-04 11:43 | 25.78103 | -77.06051 | 23115 ft | 447 kts | 19° |
| 2026-05-04 11:44 | 25.80908 | -77.04607 | 23551 ft | 450 kts | 19° |
| 2026-05-04 11:44 | 25.83756 | -77.03138 | 23892 ft | 453 kts | 19° |
| 2026-05-04 11:44 | 25.86634 | -77.01653 | 24214 ft | 455 kts | 19° |
| 2026-05-04 11:44 | 25.89522 | -77.00166 | 24525 ft | 457 kts | 19° |
| 2026-05-04 11:45 | 25.92420 | -76.98677 | 24827 ft | 460 kts | 19° |
| 2026-05-04 11:45 | 25.95325 | -76.97181 | 25134 ft | 462 kts | 19° |
| 2026-05-04 11:45 | 25.98253 | -76.95669 | 25434 ft | 465 kts | 19° |
| 2026-05-04 11:45 | 26.01196 | -76.94151 | 25677 ft | 468 kts | 19° |
| 2026-05-04 11:46 | 26.04164 | -76.92617 | 25959 ft | 471 kts | 19° |
| 2026-05-04 11:46 | 26.07140 | -76.91078 | 26244 ft | 473 kts | 19° |
| 2026-05-04 11:46 | 26.10107 | -76.89543 | 26526 ft | 476 kts | 19° |
| 2026-05-04 11:46 | 26.13128 | -76.87977 | 26818 ft | 478 kts | 19° |
| 2026-05-04 11:47 | 26.16164 | -76.86404 | 27113 ft | 480 kts | 19° |
| 2026-05-04 11:47 | 26.19204 | -76.84827 | 27445 ft | 482 kts | 19° |
| 2026-05-04 11:47 | 26.22251 | -76.83248 | 27766 ft | 483 kts | 19° |
| 2026-05-04 11:47 | 26.25270 | -76.81685 | 28068 ft | 485 kts | 19° |
| 2026-05-04 11:48 | 26.28358 | -76.80087 | 28323 ft | 490 kts | 19° |
| 2026-05-04 11:48 | 26.31455 | -76.78482 | 28649 ft | 492 kts | 19° |
| 2026-05-04 11:48 | 26.34556 | -76.76871 | 29037 ft | 492 kts | 19° |
| 2026-05-04 11:48 | 26.37686 | -76.75279 | 29444 ft | 489 kts | 15° |
| 2026-05-04 11:49 | 26.40857 | -76.74160 | 29843 ft | 480 kts | 5° |
| 2026-05-04 11:49 | 26.44134 | -76.73621 | 30229 ft | 470 kts | 355° |
| 2026-05-04 11:49 | 26.47372 | -76.73667 | 30571 ft | 460 kts | 346° |
| 2026-05-04 11:49 | 26.50506 | -76.74196 | 30906 ft | 454 kts | 342° |
| 2026-05-04 11:50 | 26.53624 | -76.74815 | 31253 ft | 454 kts | 341° |
| 2026-05-04 11:50 | 26.56749 | -76.75439 | 31604 ft | 455 kts | 341° |
| 2026-05-04 11:50 | 26.59882 | -76.76066 | 31886 ft | 457 kts | 341° |
| 2026-05-04 11:50 | 26.62972 | -76.76682 | 32214 ft | 457 kts | 341° |
| 2026-05-04 11:51 | 26.66105 | -76.77302 | 32551 ft | 457 kts | 341° |
| 2026-05-04 11:51 | 26.69245 | -76.77921 | 32908 ft | 457 kts | 341° |
| 2026-05-04 11:51 | 26.72385 | -76.78541 | 33259 ft | 457 kts | 341° |
| 2026-05-04 11:51 | 26.75530 | -76.79161 | 33616 ft | 457 kts | 341° |
| 2026-05-04 11:52 | 26.78666 | -76.79784 | 33957 ft | 457 kts | 341° |
| 2026-05-04 11:52 | 26.81794 | -76.80409 | 34243 ft | 457 kts | 341° |
| 2026-05-04 11:52 | 26.84925 | -76.81034 | 34539 ft | 456 kts | 341° |
| 2026-05-04 11:52 | 26.88061 | -76.81658 | 34811 ft | 457 kts | 340° |
| 2026-05-04 11:53 | 26.91180 | -76.82277 | 35019 ft | 459 kts | 340° |
| 2026-05-04 11:53 | 26.94326 | -76.82902 | 35274 ft | 458 kts | 339° |
| 2026-05-04 11:53 | 26.97467 | -76.83523 | 35569 ft | 457 kts | 339° |
| 2026-05-04 11:53 | 27.00610 | -76.84147 | 35854 ft | 456 kts | 339° |
| 2026-05-04 11:55 | 27.23141 | -76.88669 | 36044 ft | 482 kts | 339° |
| 2026-05-04 11:56 | 27.29704 | -76.89975 | 36044 ft | 482 kts | 339° |
| 2026-05-04 11:56 | 27.36317 | -76.91303 | 36043 ft | 482 kts | 339° |
| 2026-05-04 11:57 | 27.42913 | -76.92629 | 36043 ft | 481 kts | 339° |
| 2026-05-04 11:57 | 27.49517 | -76.93957 | 36062 ft | 481 kts | 339° |
| 2026-05-04 11:58 | 27.56111 | -76.95286 | 36060 ft | 481 kts | 339° |
| 2026-05-04 11:58 | 27.62704 | -76.96618 | 36066 ft | 482 kts | 339° |
| 2026-05-04 11:59 | 27.69307 | -76.97946 | 36073 ft | 482 kts | 339° |
| 2026-05-04 11:59 | 27.75909 | -76.99276 | 36118 ft | 482 kts | 339° |
| 2026-05-04 12:00 | 27.82483 | -77.00602 | 36077 ft | 479 kts | 339° |
| 2026-05-04 12:00 | 27.89044 | -77.01938 | 36077 ft | 479 kts | 339° |
| 2026-05-04 12:01 | 27.94502 | -77.03045 | 36085 ft | 480 kts | 339° |
| 2026-05-04 12:02 | 28.17469 | -77.07714 | 36095 ft | 478 kts | 339° |
| 2026-05-04 12:03 | 28.24020 | -77.09057 | 36095 ft | 479 kts | 339° |
| 2026-05-04 12:03 | 28.30535 | -77.10390 | 36104 ft | 479 kts | 339° |
| 2026-05-04 12:04 | 28.37103 | -77.11721 | 36099 ft | 478 kts | 339° |
| 2026-05-04 12:04 | 28.43635 | -77.13053 | 36088 ft | 477 kts | 339° |
| 2026-05-04 12:05 | 28.50165 | -77.14395 | 36089 ft | 477 kts | 339° |
| 2026-05-04 12:05 | 28.56709 | -77.15746 | 36097 ft | 478 kts | 339° |
| 2026-05-04 12:06 | 28.63255 | -77.17092 | 36101 ft | 478 kts | 339° |
| 2026-05-04 12:06 | 28.69809 | -77.18439 | 36139 ft | 479 kts | 339° |
| 2026-05-04 12:07 | 28.76379 | -77.19794 | 36135 ft | 479 kts | 339° |
| 2026-05-04 12:07 | 28.82948 | -77.21143 | 36130 ft | 480 kts | 339° |
| 2026-05-04 12:08 | 28.89525 | -77.22504 | 36131 ft | 479 kts | 339° |
| 2026-05-04 12:08 | 28.92803 | -77.23190 | 36232 ft | 479 kts | 339° |
| 2026-05-04 12:08 | 28.96074 | -77.23875 | 36113 ft | 475 kts | 339° |
| 2026-05-04 12:09 | 29.02504 | -77.25197 | 36097 ft | 472 kts | 339° |
| 2026-05-04 12:09 | 29.08976 | -77.26531 | 36101 ft | 473 kts | 339° |
| 2026-05-04 12:10 | 29.15453 | -77.27880 | 36115 ft | 473 kts | 339° |
| 2026-05-04 12:10 | 29.21940 | -77.29232 | 36171 ft | 474 kts | 339° |
| 2026-05-04 12:11 | 29.28425 | -77.30581 | 36162 ft | 474 kts | 339° |
| 2026-05-04 12:11 | 29.34913 | -77.31928 | 36158 ft | 473 kts | 339° |
| 2026-05-04 12:12 | 29.41396 | -77.33278 | 36153 ft | 473 kts | 339° |
| 2026-05-04 12:12 | 29.47871 | -77.34633 | 36154 ft | 473 kts | 339° |
| 2026-05-04 12:14 | 29.73563 | -77.40029 | 36146 ft | 470 kts | 339° |
| 2026-05-04 12:15 | 29.80002 | -77.41377 | 36213 ft | 470 kts | 340° |
| 2026-05-04 12:15 | 29.86415 | -77.42721 | 36148 ft | 469 kts | 340° |
| 2026-05-04 12:16 | 29.92848 | -77.44081 | 36152 ft | 470 kts | 340° |
| 2026-05-04 12:16 | 29.99290 | -77.45444 | 36156 ft | 470 kts | 340° |
| 2026-05-04 12:17 | 30.05726 | -77.46807 | 36164 ft | 470 kts | 340° |
| 2026-05-04 12:17 | 30.12168 | -77.48175 | 36166 ft | 471 kts | 340° |
| 2026-05-04 12:18 | 30.18606 | -77.49543 | 36165 ft | 471 kts | 340° |
| 2026-05-04 12:18 | 30.25058 | -77.50910 | 36167 ft | 471 kts | 340° |
| 2026-05-04 12:19 | 30.31506 | -77.52275 | 36171 ft | 471 kts | 340° |
| 2026-05-04 12:19 | 30.37910 | -77.53631 | 36189 ft | 471 kts | 340° |
| 2026-05-04 12:20 | 30.44342 | -77.55005 | 36177 ft | 470 kts | 340° |
| 2026-05-04 12:20 | 30.50773 | -77.56382 | 36183 ft | 470 kts | 340° |
| 2026-05-04 12:21 | 30.57204 | -77.57753 | 36177 ft | 470 kts | 340° |
| 2026-05-04 12:21 | 30.63643 | -77.59132 | 36181 ft | 470 kts | 340° |
| 2026-05-04 12:22 | 30.70027 | -77.60498 | 36154 ft | 461 kts | 341° |
| 2026-05-04 12:22 | 30.76333 | -77.61849 | 36157 ft | 460 kts | 341° |
| 2026-05-04 12:23 | 30.82637 | -77.63208 | 36166 ft | 461 kts | 341° |
| 2026-05-04 12:23 | 30.88952 | -77.64567 | 36172 ft | 461 kts | 341° |
| 2026-05-04 12:24 | 30.95260 | -77.65928 | 36185 ft | 460 kts | 341° |
| 2026-05-04 12:24 | 31.01526 | -77.67278 | 36174 ft | 458 kts | 341° |
| 2026-05-04 12:25 | 31.07791 | -77.68628 | 36174 ft | 458 kts | 341° |
| 2026-05-04 12:25 | 31.14024 | -77.69982 | 36177 ft | 458 kts | 341° |
| 2026-05-04 12:26 | 31.20303 | -77.71347 | 36184 ft | 458 kts | 341° |
| 2026-05-04 12:26 | 31.26573 | -77.72703 | 36206 ft | 458 kts | 342° |
| 2026-05-04 12:27 | 31.32843 | -77.74060 | 36201 ft | 457 kts | 342° |
| 2026-05-04 12:27 | 31.39054 | -77.75408 | 36201 ft | 456 kts | 342° |
| 2026-05-04 12:28 | 31.45300 | -77.76769 | 36199 ft | 456 kts | 342° |
| 2026-05-04 12:28 | 31.51531 | -77.78126 | 36183 ft | 453 kts | 342° |
| 2026-05-04 12:29 | 31.57703 | -77.79464 | 36177 ft | 451 kts | 342° |
| 2026-05-04 12:29 | 31.63869 | -77.80815 | 36182 ft | 451 kts | 342° |
| 2026-05-04 12:30 | 31.70037 | -77.82177 | 36185 ft | 451 kts | 342° |
| 2026-05-04 12:30 | 31.76209 | -77.83525 | 36184 ft | 451 kts | 342° |
| 2026-05-04 12:31 | 31.82383 | -77.84879 | 36212 ft | 450 kts | 343° |
| 2026-05-04 12:31 | 31.88558 | -77.86149 | 36203 ft | 454 kts | 348° |
| 2026-05-04 12:32 | 31.98150 | -77.85693 | 36194 ft | 462 kts | 357° |
| 2026-05-04 12:33 | 32.04564 | -77.85196 | 36223 ft | 461 kts | 357° |
| 2026-05-04 12:33 | 32.10924 | -77.84702 | 36176 ft | 457 kts | 357° |
| 2026-05-04 12:34 | 32.17226 | -77.84216 | 36186 ft | 457 kts | 357° |
| 2026-05-04 12:34 | 32.23592 | -77.83727 | 36182 ft | 457 kts | 357° |
| 2026-05-04 12:35 | 32.29901 | -77.83238 | 36226 ft | 457 kts | 357° |
| 2026-05-04 12:35 | 32.36242 | -77.82746 | 36187 ft | 455 kts | 358° |
| 2026-05-04 12:36 | 32.42562 | -77.82256 | 36182 ft | 455 kts | 357° |
| 2026-05-04 12:36 | 32.48887 | -77.81768 | 36180 ft | 455 kts | 357° |
| 2026-05-04 12:37 | 32.55211 | -77.81276 | 36181 ft | 455 kts | 358° |
| 2026-05-04 12:37 | 32.61540 | -77.80777 | 36204 ft | 455 kts | 357° |
| 2026-05-04 12:38 | 32.67852 | -77.80287 | 36192 ft | 454 kts | 357° |
| 2026-05-04 12:38 | 32.74113 | -77.79797 | 36187 ft | 454 kts | 357° |
| 2026-05-04 12:39 | 32.80417 | -77.79304 | 36187 ft | 453 kts | 357° |
| 2026-05-04 12:39 | 32.86710 | -77.78808 | 36188 ft | 453 kts | 357° |
| 2026-05-04 12:40 | 32.93000 | -77.78316 | 36181 ft | 453 kts | 357° |
| 2026-05-04 12:40 | 32.99292 | -77.77820 | 36179 ft | 453 kts | 357° |
| 2026-05-04 12:41 | 33.05583 | -77.77326 | 36180 ft | 453 kts | 357° |
| 2026-05-04 12:41 | 33.11869 | -77.76824 | 36197 ft | 452 kts | 357° |
| 2026-05-04 12:42 | 33.18141 | -77.76323 | 36188 ft | 451 kts | 357° |
| 2026-05-04 12:42 | 33.24396 | -77.75837 | 36185 ft | 450 kts | 357° |
| 2026-05-04 12:43 | 33.30610 | -77.75353 | 36180 ft | 450 kts | 357° |
| 2026-05-04 12:43 | 33.36856 | -77.74863 | 36205 ft | 450 kts | 357° |
| 2026-05-04 12:44 | 33.43102 | -77.74361 | 36189 ft | 449 kts | 357° |
| 2026-05-04 12:44 | 33.49344 | -77.73865 | 36183 ft | 449 kts | 357° |
| 2026-05-04 12:45 | 33.55579 | -77.73370 | 36179 ft | 448 kts | 357° |
| 2026-05-04 12:45 | 33.61804 | -77.72875 | 36191 ft | 448 kts | 357° |
| 2026-05-04 12:46 | 33.68018 | -77.72367 | 36173 ft | 449 kts | 359° |
| 2026-05-04 12:46 | 33.74228 | -77.71098 | 36168 ft | 453 kts | 3° |
| 2026-05-04 12:47 | 33.80395 | -77.69749 | 36170 ft | 454 kts | 3° |
| 2026-05-04 12:47 | 33.86611 | -77.68392 | 36205 ft | 454 kts | 3° |
| 2026-05-04 12:48 | 33.92829 | -77.67032 | 36189 ft | 454 kts | 3° |
| 2026-05-04 12:48 | 33.99057 | -77.65665 | 36183 ft | 454 kts | 3° |
| 2026-05-04 12:49 | 34.04227 | -77.64532 | 36177 ft | 454 kts | 3° |
| 2026-05-04 12:49 | 34.10458 | -77.63169 | 36173 ft | 454 kts | 3° |
| 2026-05-04 12:50 | 34.16683 | -77.61806 | 36190 ft | 454 kts | 2° |
| 2026-05-04 12:50 | 34.22914 | -77.60431 | 36184 ft | 454 kts | 2° |
| 2026-05-04 12:51 | 34.29132 | -77.59066 | 36185 ft | 454 kts | 2° |
| 2026-05-04 12:51 | 34.35355 | -77.57703 | 36174 ft | 455 kts | 2° |
| 2026-05-04 12:52 | 34.41588 | -77.56327 | 36198 ft | 456 kts | 2° |
| 2026-05-04 12:52 | 34.47828 | -77.54938 | 36188 ft | 456 kts | 2° |
| 2026-05-04 12:53 | 34.53979 | -77.52781 | 36180 ft | 472 kts | 18° |
| 2026-05-04 12:53 | 34.59890 | -77.49228 | 36174 ft | 474 kts | 19° |
| 2026-05-04 12:54 | 34.65806 | -77.45688 | 36176 ft | 475 kts | 18° |
| 2026-05-04 12:54 | 34.71735 | -77.42141 | 36172 ft | 475 kts | 18° |
| 2026-05-04 12:55 | 34.77674 | -77.38569 | 36170 ft | 476 kts | 18° |
| 2026-05-04 12:55 | 34.83614 | -77.34997 | 36174 ft | 476 kts | 18° |
| 2026-05-04 12:56 | 34.89538 | -77.31438 | 36167 ft | 478 kts | 19° |
| 2026-05-04 12:56 | 34.95540 | -77.27816 | 36168 ft | 479 kts | 19° |
| 2026-05-04 12:57 | 35.01487 | -77.24219 | 36170 ft | 479 kts | 19° |
| 2026-05-04 12:57 | 35.07467 | -77.20599 | 36193 ft | 480 kts | 20° |
| 2026-05-04 12:58 | 35.13477 | -77.16957 | 36170 ft | 482 kts | 20° |
| 2026-05-04 12:58 | 35.19491 | -77.13302 | 36157 ft | 483 kts | 20° |
| 2026-05-04 12:59 | 35.25513 | -77.09631 | 36157 ft | 484 kts | 20° |
| 2026-05-04 12:59 | 35.31550 | -77.05950 | 36162 ft | 484 kts | 20° |
| 2026-05-04 13:00 | 35.37583 | -77.02276 | 36158 ft | 484 kts | 20° |
| 2026-05-04 13:00 | 35.43580 | -76.98609 | 36162 ft | 485 kts | 20° |
| 2026-05-04 13:01 | 35.49618 | -76.94908 | 36167 ft | 485 kts | 20° |
| 2026-05-04 13:01 | 35.55658 | -76.91210 | 36177 ft | 485 kts | 20° |
| 2026-05-04 13:02 | 35.61698 | -76.87511 | 36159 ft | 484 kts | 20° |
| 2026-05-04 13:02 | 35.67748 | -76.83835 | 36140 ft | 485 kts | 20° |
| 2026-05-04 13:03 | 35.73813 | -76.80155 | 36138 ft | 487 kts | 20° |
| 2026-05-04 13:03 | 35.79901 | -76.76441 | 36165 ft | 488 kts | 20° |
| 2026-05-04 13:04 | 35.85949 | -76.72744 | 36153 ft | 489 kts | 20° |
| 2026-05-04 13:04 | 35.92048 | -76.68998 | 36150 ft | 490 kts | 21° |
| 2026-05-04 13:05 | 35.98070 | -76.65017 | 36154 ft | 492 kts | 23° |
| 2026-05-04 13:05 | 36.04039 | -76.60889 | 36159 ft | 490 kts | 23° |
| 2026-05-04 13:06 | 36.10000 | -76.56799 | 36152 ft | 490 kts | 23° |
| 2026-05-04 13:06 | 36.15980 | -76.52756 | 36151 ft | 490 kts | 22° |
| 2026-05-04 13:07 | 36.21969 | -76.48714 | 36132 ft | 490 kts | 23° |
| 2026-05-04 13:07 | 36.27965 | -76.44649 | 36135 ft | 492 kts | 23° |
| 2026-05-04 13:08 | 36.33967 | -76.40556 | 36129 ft | 492 kts | 23° |
| 2026-05-04 13:08 | 36.39981 | -76.36461 | 36129 ft | 493 kts | 23° |
| 2026-05-04 13:09 | 36.45957 | -76.32385 | 36175 ft | 493 kts | 23° |
| 2026-05-04 13:09 | 36.51956 | -76.28268 | 36161 ft | 492 kts | 23° |
| 2026-05-04 13:10 | 36.57948 | -76.24158 | 36163 ft | 491 kts | 23° |
| 2026-05-04 13:10 | 36.63940 | -76.20055 | 36146 ft | 491 kts | 23° |
| 2026-05-04 13:11 | 36.69925 | -76.15943 | 36167 ft | 490 kts | 23° |
| 2026-05-04 13:11 | 36.75894 | -76.11823 | 36135 ft | 491 kts | 23° |
| 2026-05-04 13:12 | 36.81878 | -76.07690 | 36106 ft | 492 kts | 23° |
| 2026-05-04 13:12 | 36.87877 | -76.03540 | 36105 ft | 493 kts | 23° |
| 2026-05-04 13:13 | 36.93833 | -75.99409 | 36139 ft | 493 kts | 23° |
| 2026-05-04 13:13 | 36.99821 | -75.95252 | 36135 ft | 492 kts | 23° |
| 2026-05-04 13:14 | 37.05810 | -75.91087 | 36140 ft | 491 kts | 23° |
| 2026-05-04 13:14 | 37.12018 | -75.87839 | 36157 ft | 478 kts | 9° |
| 2026-05-04 13:15 | 37.18430 | -75.85632 | 36140 ft | 478 kts | 9° |
| 2026-05-04 13:15 | 37.24845 | -75.83426 | 36128 ft | 477 kts | 9° |
| 2026-05-04 13:16 | 37.31247 | -75.81207 | 36127 ft | 477 kts | 9° |
| 2026-05-04 13:16 | 37.37644 | -75.78975 | 36113 ft | 475 kts | 9° |
| 2026-05-04 13:17 | 37.44017 | -75.76748 | 36091 ft | 476 kts | 9° |
| 2026-05-04 13:17 | 37.50371 | -75.74533 | 36079 ft | 477 kts | 9° |
| 2026-05-04 13:18 | 37.56787 | -75.72289 | 36080 ft | 478 kts | 9° |
| 2026-05-04 13:18 | 37.63202 | -75.70045 | 36088 ft | 479 kts | 9° |
| 2026-05-04 13:19 | 37.69625 | -75.67784 | 36088 ft | 479 kts | 9° |
| 2026-05-04 13:19 | 37.76056 | -75.65523 | 36095 ft | 479 kts | 9° |
| 2026-05-04 13:20 | 37.82471 | -75.63175 | 36124 ft | 483 kts | 14° |
| 2026-05-04 13:20 | 37.85543 | -75.61380 | 36122 ft | 491 kts | 25° |
| 2026-05-04 13:20 | 37.88412 | -75.58997 | 36122 ft | 494 kts | 29° |
| 2026-05-04 13:21 | 37.94075 | -75.54057 | 36116 ft | 494 kts | 29° |
| 2026-05-04 13:21 | 37.99744 | -75.49124 | 36141 ft | 494 kts | 29° |
| 2026-05-04 13:22 | 38.05374 | -75.44214 | 36126 ft | 493 kts | 29° |
| 2026-05-04 13:22 | 38.11095 | -75.39418 | 36102 ft | 492 kts | 27° |
| 2026-05-04 13:23 | 38.16888 | -75.34777 | 36090 ft | 493 kts | 27° |
| 2026-05-04 13:23 | 38.22713 | -75.30181 | 36118 ft | 490 kts | 22° |
| 2026-05-04 13:24 | 38.29002 | -75.27323 | 36117 ft | 473 kts | 4° |
| 2026-05-04 13:24 | 38.35484 | -75.25948 | 36112 ft | 472 kts | 3° |
| 2026-05-04 13:25 | 38.45213 | -75.23904 | 36134 ft | 472 kts | 3° |
| 2026-05-04 13:25 | 38.51690 | -75.22544 | 36124 ft | 472 kts | 3° |
| 2026-05-04 13:26 | 38.58125 | -75.21189 | 36111 ft | 471 kts | 3° |
| 2026-05-04 13:26 | 38.64600 | -75.19830 | 36127 ft | 471 kts | 3° |
| 2026-05-04 13:27 | 38.70954 | -75.17431 | 36119 ft | 485 kts | 21° |
| 2026-05-04 13:27 | 38.73866 | -75.15174 | 36107 ft | 493 kts | 32° |
| 2026-05-04 13:27 | 38.76590 | -75.12504 | 36097 ft | 494 kts | 32° |
| 2026-05-04 13:28 | 38.82051 | -75.07137 | 36092 ft | 494 kts | 32° |
| 2026-05-04 13:28 | 38.87517 | -75.01780 | 36113 ft | 495 kts | 32° |
| 2026-05-04 13:29 | 38.92994 | -74.96406 | 36096 ft | 496 kts | 32° |
| 2026-05-04 13:29 | 38.98434 | -74.91047 | 36093 ft | 496 kts | 33° |
| 2026-05-04 13:30 | 39.03908 | -74.85643 | 36111 ft | 496 kts | 33° |
| 2026-05-04 13:30 | 39.09381 | -74.80215 | 36104 ft | 496 kts | 33° |
| 2026-05-04 13:31 | 39.14808 | -74.74792 | 35973 ft | 486 kts | 33° |
| 2026-05-04 13:31 | 39.17454 | -74.72130 | 35119 ft | 482 kts | 33° |
| 2026-05-04 13:31 | 39.20087 | -74.69458 | 34149 ft | 481 kts | 35° |
| 2026-05-04 13:32 | 39.22403 | -74.66315 | 33152 ft | 486 kts | 52° |
| 2026-05-04 13:32 | 39.23972 | -74.62481 | 32386 ft | 483 kts | 66° |
| 2026-05-04 13:32 | 39.25139 | -74.58449 | 31555 ft | 476 kts | 68° |
| 2026-05-04 13:32 | 39.26274 | -74.54469 | 30790 ft | 466 kts | 63° |
| 2026-05-04 13:33 | 39.27258 | -74.52038 | 30496 ft | 457 kts | 53° |
| 2026-05-04 13:33 | 39.30044 | -74.47964 | 30175 ft | 452 kts | 33° |
| 2026-05-04 13:33 | 39.31751 | -74.46447 | 30040 ft | 448 kts | 24° |
| 2026-05-04 13:33 | 39.34452 | -74.44473 | 30075 ft | 444 kts | 24° |
| 2026-05-04 13:34 | 39.39827 | -74.40565 | 30074 ft | 442 kts | 24° |
| 2026-05-04 13:34 | 39.45177 | -74.36664 | 30065 ft | 440 kts | 24° |
| 2026-05-04 13:35 | 39.53148 | -74.30843 | 30074 ft | 437 kts | 24° |
| 2026-05-04 13:36 | 39.58382 | -74.26847 | 30064 ft | 439 kts | 31° |
| 2026-05-04 13:36 | 39.63113 | -74.21765 | 30073 ft | 444 kts | 35° |
| 2026-05-04 13:36 | 39.65527 | -74.19110 | 29228 ft | 467 kts | 36° |
| 2026-05-04 13:37 | 39.68029 | -74.16365 | 28367 ft | 470 kts | 36° |
| 2026-05-04 13:37 | 39.70516 | -74.13629 | 27937 ft | 469 kts | 36° |
| 2026-05-04 13:37 | 39.72997 | -74.10891 | 27388 ft | 465 kts | 36° |
| 2026-05-04 13:37 | 39.75450 | -74.08175 | 26870 ft | 461 kts | 36° |
| 2026-05-04 13:38 | 39.77881 | -74.05482 | 26358 ft | 457 kts | 36° |
| 2026-05-04 13:38 | 39.80284 | -74.02815 | 25880 ft | 452 kts | 36° |
| 2026-05-04 13:38 | 39.82660 | -74.00177 | 25369 ft | 446 kts | 36° |
| 2026-05-04 13:38 | 39.85161 | -73.97846 | 24907 ft | 438 kts | 25° |
| 2026-05-04 13:39 | 39.87819 | -73.95958 | 24450 ft | 434 kts | 24° |
| 2026-05-04 13:39 | 39.90465 | -73.94098 | 23982 ft | 430 kts | 24° |
| 2026-05-04 13:39 | 39.93089 | -73.92247 | 23497 ft | 427 kts | 24° |
| 2026-05-04 13:39 | 39.95693 | -73.90405 | 23007 ft | 423 kts | 24° |
| 2026-05-04 13:40 | 39.98238 | -73.88598 | 22552 ft | 420 kts | 24° |
| 2026-05-04 13:40 | 40.00803 | -73.86771 | 22086 ft | 418 kts | 25° |
| 2026-05-04 13:40 | 40.03219 | -73.84633 | 21579 ft | 419 kts | 33° |
| 2026-05-04 13:40 | 40.05529 | -73.82318 | 21075 ft | 416 kts | 33° |
| 2026-05-04 13:41 | 40.07819 | -73.80026 | 20572 ft | 413 kts | 33° |
| 2026-05-04 13:41 | 40.10099 | -73.77744 | 20068 ft | 410 kts | 33° |
| 2026-05-04 13:41 | 40.12357 | -73.75484 | 19558 ft | 407 kts | 33° |
| 2026-05-04 13:42 | 40.16796 | -73.71035 | 18557 ft | 402 kts | 33° |
| 2026-05-04 13:42 | 40.19009 | -73.68814 | 18025 ft | 405 kts | 33° |
| 2026-05-04 13:42 | 40.21328 | -73.66500 | 17478 ft | 427 kts | 33° |
| 2026-05-04 13:42 | 40.23702 | -73.64127 | 16936 ft | 429 kts | 34° |
| 2026-05-04 13:43 | 40.26067 | -73.61750 | 16394 ft | 428 kts | 34° |
| 2026-05-04 13:43 | 40.28417 | -73.59374 | 15844 ft | 425 kts | 34° |
| 2026-05-04 13:43 | 40.30756 | -73.57021 | 15311 ft | 421 kts | 33° |
| 2026-05-04 13:43 | 40.33275 | -73.55167 | 14768 ft | 412 kts | 18° |
| 2026-05-04 13:44 | 40.36000 | -73.54190 | 14247 ft | 404 kts | 7° |
| 2026-05-04 13:44 | 40.38769 | -73.53518 | 13712 ft | 403 kts | 7° |
| 2026-05-04 13:44 | 40.41516 | -73.52854 | 13163 ft | 401 kts | 7° |
| 2026-05-04 13:44 | 40.44255 | -73.52192 | 12647 ft | 399 kts | 7° |
| 2026-05-04 13:45 | 40.46985 | -73.51529 | 12129 ft | 397 kts | 7° |
| 2026-05-04 13:45 | 40.49701 | -73.50867 | 11616 ft | 396 kts | 7° |
| 2026-05-04 13:45 | 40.52403 | -73.50206 | 11107 ft | 394 kts | 7° |
| 2026-05-04 13:45 | 40.55091 | -73.49546 | 10598 ft | 392 kts | 7° |
| 2026-05-04 13:46 | 40.57766 | -73.48891 | 10234 ft | 389 kts | 7° |
| 2026-05-04 13:46 | 40.60432 | -73.48239 | 10135 ft | 391 kts | 6° |
| 2026-05-04 13:46 | 40.63103 | -73.47585 | 9902 ft | 391 kts | 6° |
| 2026-05-04 13:46 | 40.65761 | -73.46931 | 9280 ft | 386 kts | 6° |
| 2026-05-04 13:47 | 40.68384 | -73.46175 | 8785 ft | 387 kts | 15° |
| 2026-05-04 13:47 | 40.70854 | -73.44749 | 8239 ft | 387 kts | 22° |
| 2026-05-04 13:47 | 40.73288 | -73.43251 | 7687 ft | 382 kts | 18° |
| 2026-05-04 13:47 | 40.75829 | -73.42607 | 7152 ft | 366 kts | 353° |
| 2026-05-04 13:48 | 40.78222 | -73.43439 | 6647 ft | 348 kts | 326° |
| 2026-05-04 13:48 | 40.79923 | -73.45392 | 6228 ft | 314 kts | 303° |
| 2026-05-04 13:48 | 40.80998 | -73.47767 | 5796 ft | 291 kts | 292° |
| 2026-05-04 13:48 | 40.81803 | -73.50164 | 5400 ft | 274 kts | 289° |
| 2026-05-04 13:49 | 40.82304 | -73.52479 | 5029 ft | 253 kts | 269° |
| 2026-05-04 13:49 | 40.82081 | -73.54694 | 4717 ft | 236 kts | 251° |
| 2026-05-04 13:49 | 40.81510 | -73.56658 | 4434 ft | 223 kts | 248° |
| 2026-05-04 13:49 | 40.80996 | -73.58548 | 4147 ft | 213 kts | 250° |
| 2026-05-04 13:50 | 40.80534 | -73.60328 | 3858 ft | 202 kts | 250° |
| 2026-05-04 13:50 | 40.80096 | -73.62035 | 3610 ft | 191 kts | 249° |
| 2026-05-04 13:50 | 40.79481 | -73.63538 | 3363 ft | 180 kts | 229° |
| 2026-05-04 13:50 | 40.78501 | -73.64526 | 3134 ft | 177 kts | 214° |
| 2026-05-04 13:51 | 40.77462 | -73.65337 | 2986 ft | 175 kts | 214° |
| 2026-05-04 13:51 | 40.76441 | -73.66140 | 2793 ft | 166 kts | 214° |
| 2026-05-04 13:51 | 40.75464 | -73.66907 | 2569 ft | 160 kts | 214° |
| 2026-05-04 13:51 | 40.74526 | -73.67644 | 2353 ft | 152 kts | 214° |
| 2026-05-04 13:52 | 40.72829 | -73.68975 | 1994 ft | 133 kts | 215° |
| 2026-05-04 13:52 | 40.72034 | -73.69600 | 1802 ft | 133 kts | 215° |
| 2026-05-04 13:52 | 40.71236 | -73.70226 | 1621 ft | 133 kts | 214° |
| 2026-05-04 13:53 | 40.70445 | -73.70847 | 1443 ft | 132 kts | 214° |
| 2026-05-04 13:53 | 40.69656 | -73.71465 | 1252 ft | 132 kts | 213° |
| 2026-05-04 13:53 | 40.68865 | -73.72085 | 1077 ft | 132 kts | 213° |
| 2026-05-04 13:54 | 40.67284 | -73.73333 | 674 ft | 132 kts | 214° |
| 2026-05-04 13:54 | 40.66489 | -73.73942 | 555 ft | 134 kts | 211° |
| 2026-05-04 13:54 | 40.64896 | -73.75186 | 156 ft | 130 kts | 213° |
| 2026-05-04 13:55 | 40.64125 | -73.75789 | 30 ft | 121 kts | 213° |
| 2026-05-04 13:55 | 40.63327 | -73.76434 | 23 ft | 36 kts | 217° |
| 2026-05-04 13:55 | 40.63237 | -73.76668 | 19 ft | 24 kts | 266° |
| 2026-05-04 13:56 | 40.63293 | -73.76838 | 21 ft | 19 kts | 299° |
| 2026-05-04 13:56 | 40.63354 | -73.76975 | 21 ft | 17 kts | 300° |
| 2026-05-04 13:56 | 40.63486 | -73.77266 | 24 ft | 26 kts | 300° |
| 2026-05-04 13:57 | 40.63596 | -73.77510 | 22 ft | 35 kts | 301° |
| 2026-05-04 13:57 | 40.63697 | -73.77671 | 20 ft | 14 kts | 351° |
| 2026-05-04 13:58 | 40.63991 | -73.77448 | 22 ft | 18 kts | 30° |
| 2026-05-04 13:58 | 40.64124 | -73.77505 | 23 ft | 13 kts | 320° |
| 2026-05-04 13:58 | 40.64205 | -73.77572 | 23 ft | 16 kts | 331° |
| 2026-05-04 13:59 | 40.64319 | -73.77606 | 23 ft | 18 kts | 9° |
| 2026-05-04 13:59 | 40.64417 | -73.77592 | 23 ft | 3 kts | 6° |
| 2026-05-04 13:59 | 40.64419 | -73.77592 | 23 ft | 0 kts | 6° |